| time (UTC) | temp F | wind direction | speed knots | gust knots | rain 1hr in | rain 24hr in | rain mn in | humidity % | barometer mb |
| 20260906051547 | 57 | 360 | 3.5 | 8.7 | 0.00 | 0.02 | 0.00 | 100 | 1015.3 |
| 20260906050047 | 56 | 277 | 3.5 | 7.8 | 0.00 | 0.02 | 0.00 | 100 | 1015.1 |
| 20260906044544 | 56 | 279 | 2.6 | 7.8 | 0.00 | 0.02 | 0.00 | 100 | 1014.9 |
| 20260906043044 | 56 | 279 | 1.7 | 6.1 | 0.00 | 0.02 | 0.00 | 100 | 1014.8 |
| 20260906041537 | 55 | 281 | 4.3 | 7.0 | 0.00 | 0.02 | 0.00 | 100 | 1014.7 |
| 20260906040034 | 55 | 279 | 1.7 | 4.3 | 0.00 | 0.02 | 0.00 | 100 | 1014.6 |
| 20260906034527 | 55 | 267 | 3.5 | 7.8 | 0.00 | 0.02 | 0.00 | 100 | 1014.5 |
| 20260906033025 | 54 | 266 | 1.7 | 4.3 | 0.00 | 0.02 | 0.00 | 100 | 1014.3 |
| 20260906031540 | 54 | 252 | 1.7 | 5.2 | 0.00 | 0.02 | 0.00 | 100 | 1014.3 |
| 20260906030022 | 53 | 257 | 0.9 | 2.6 | 0.00 | 0.02 | 0.00 | 100 | 1014.1 |
| 20260906024523 | 53 | 257 | 0.0 | 1.7 | 0.00 | 0.02 | 0.00 | 100 | 1013.9 |
| 20260906023021 | 54 | 257 | 0.0 | 1.7 | 0.00 | 0.02 | 0.00 | 100 | 1013.6 |
| 20260906021520 | 55 | 257 | 0.0 | 0.0 | 0.00 | 0.02 | 0.00 | 100 | 1013.5 |
| 20260906020024 | 55 | 257 | 0.0 | 0.9 | 0.00 | 0.02 | 0.00 | 100 | 1013.7 |
| 20260906014517 | 56 | 257 | 0.0 | 1.7 | 0.00 | 0.02 | 0.00 | 100 | 1013.9 |
| 20260906013015 | 55 | 257 | 1.7 | 3.5 | 0.00 | 0.02 | 0.00 | 100 | 1013.9 |
| 20260906011515 | 54 | 257 | 0.9 | 3.5 | 0.00 | 0.02 | 0.00 | 100 | 1013.9 |
| 20260906010012 | 52 | 257 | 0.0 | 2.6 | 0.00 | 0.02 | 0.00 | 100 | 1013.9 |
| 20260906004511 | 51 | 257 | 0.0 | 0.0 | 0.00 | 0.02 | 0.00 | 100 | 1014.0 |
| 20260906003019 | 50 | 256 | 0.0 | 0.0 | 0.00 | 0.02 | 0.00 | 100 | 1014.0 |
| 20260906001510 | 50 | 256 | 0.0 | 0.0 | 0.00 | 0.02 | 0.00 | 100 | 1014.0 |
| 20260906000009 | 50 | 360 | 0.0 | 0.0 | 0.00 | 0.02 | 0.00 | 100 | 1014.1 |
| 20260905234510 | 50 | 254 | 0.0 | 0.0 | 0.00 | 0.02 | 0.00 | 100 | 1013.9 |
| 20260905233008 | 51 | 360 | 0.0 | 0.0 | 0.00 | 0.02 | 0.00 | 100 | 1014.0 |
| 20260905231505 | 52 | 360 | 0.0 | 0.0 | 0.00 | 0.02 | 0.00 | 100 | 1013.9 |
| 20260905230001 | 52 | 360 | 0.0 | 0.0 | 0.00 | 0.02 | 0.00 | 100 | 1014.0 |
| 20260905224608 | 53 | 256 | 0.0 | 0.9 | 0.00 | 0.02 | 0.00 | 100 | 1013.9 |
| 20260905223059 | 53 | 360 | 0.0 | 1.7 | 0.00 | 0.02 | 0.00 | 100 | 1013.9 |
| 20260905221600 | 53 | 255 | 0.0 | 0.9 | 0.00 | 0.02 | 0.00 | 100 | 1014.0 |
| 20260905214554 | 54 | 261 | 0.9 | 3.5 | 0.00 | 0.02 | 0.00 | 100 | 1013.9 |
| 20260905213100 | 54 | 262 | 0.0 | 1.7 | 0.00 | 0.02 | 0.00 | 100 | 1014.1 |
| 20260905211550 | 54 | 263 | 0.0 | 0.9 | 0.00 | 0.02 | 0.00 | 100 | 1013.9 |
| 20260905210104 | 54 | 263 | 0.0 | 0.0 | 0.00 | 0.02 | 0.00 | 100 | 1013.9 |
| 20260905204547 | 55 | 263 | 0.0 | 0.9 | 0.00 | 0.02 | 0.02 | 100 | 1013.9 |
| 20260905203048 | 55 | 263 | 0.9 | 2.6 | 0.00 | 0.02 | 0.02 | 100 | 1013.9 |
| 20260905201548 | 54 | 263 | 0.0 | 0.0 | 0.00 | 0.02 | 0.02 | 100 | 1013.7 |
| 20260905200056 | 54 | 263 | 0.0 | 0.9 | 0.00 | 0.02 | 0.02 | 100 | 1013.6 |
| 20260905194542 | 56 | 263 | 0.0 | 1.7 | 0.00 | 0.02 | 0.02 | 100 | 1013.6 |
| 20260905193040 | 56 | 263 | 1.7 | 3.5 | 0.00 | 0.02 | 0.02 | 100 | 1013.4 |
| 20260905191541 | 55 | 264 | 1.7 | 2.6 | 0.00 | 0.02 | 0.02 | 100 | 1013.3 |
| 20260905190037 | 53 | 360 | 0.9 | 2.6 | 0.00 | 0.02 | 0.02 | 100 | 1013.2 |
| 20260905184537 | 53 | 360 | 0.0 | 0.0 | 0.00 | 0.02 | 0.02 | 100 | 1013.2 |
| 20260905183032 | 53 | 360 | 0.0 | 0.0 | 0.00 | 0.02 | 0.02 | 100 | 1013.2 |
| 20260905181529 | 55 | 265 | 0.0 | 0.9 | 0.00 | 0.02 | 0.02 | 100 | 1013.0 |
| 20260905180028 | 57 | 265 | 0.0 | 1.7 | 0.00 | 0.02 | 0.02 | 100 | 1013.1 |
| 20260905174526 | 59 | 265 | 0.0 | 1.7 | 0.00 | 0.02 | 0.02 | 100 | 1013.1 |
| 20260905173025 | 60 | 265 | 0.9 | 3.5 | 0.00 | 0.02 | 0.02 | 100 | 1012.9 |
| 20260905171538 | 60 | 360 | 0.9 | 2.6 | 0.00 | 0.02 | 0.02 | 100 | 1012.7 |
| 20260905170029 | 61 | 360 | 1.7 | 3.5 | 0.00 | 0.02 | 0.02 | 100 | 1012.5 |
| 20260905164523 | 62 | 360 | 1.7 | 4.3 | 0.00 | 0.02 | 0.02 | 100 | 1012.3 |
| 20260905163025 | 63 | 360 | 0.9 | 3.5 | 0.00 | 0.02 | 0.02 | 100 | 1012.2 |
| 20260905161533 | 63 | 360 | 1.7 | 5.2 | 0.00 | 0.02 | 0.02 | 100 | 1012.1 |
| 20260905160032 | 65 | 360 | 0.9 | 3.5 | 0.00 | 0.02 | 0.02 | 100 | 1012.2 |
| 20260905154544 | 67 | 360 | 1.7 | 7.8 | 0.00 | 0.02 | 0.02 | 100 | 1012.0 |
| 20260905153025 | 67 | 360 | 1.7 | 6.1 | 0.00 | 0.02 | 0.02 | 100 | 1012.0 |
| 20260905151519 | 68 | 269 | 2.6 | 7.0 | 0.00 | 0.02 | 0.02 | 100 | 1012.0 |
| 20260905150019 | 66 | 281 | 1.7 | 7.0 | 0.00 | 0.02 | 0.02 | 100 | 1011.9 |
| 20260905144531 | 65 | 360 | 0.9 | 4.3 | 0.00 | 0.02 | 0.02 | 100 | 1011.9 |
| 20260905143018 | 63 | 360 | 0.0 | 2.6 | 0.00 | 0.02 | 0.02 | 100 | 1012.2 |
| 20260905141523 | 63 | 360 | 0.9 | 3.5 | 0.00 | 0.02 | 0.02 | 100 | 1012.3 |
| 20260905140021 | 63 | 360 | 0.9 | 4.3 | 0.00 | 0.02 | 0.02 | 100 | 1011.7 |
| 20260905134516 | 64 | 360 | 0.9 | 3.5 | 0.00 | 0.02 | 0.02 | 100 | 1012.1 |
| 20260905133016 | 64 | 360 | 2.6 | 5.2 | 0.00 | 0.02 | 0.02 | 100 | 1012.2 |
| 20260905131514 | 63 | 360 | 0.9 | 5.2 | 0.00 | 0.02 | 0.02 | 100 | 1012.1 |
| 20260905130017 | 64 | 360 | 1.7 | 4.3 | 0.00 | 0.02 | 0.02 | 100 | 1012.3 |
| 20260905124519 | 64 | 360 | 0.9 | 3.5 | 0.00 | 0.02 | 0.02 | 100 | 1012.2 |
| 20260905123014 | 64 | 360 | 1.7 | 5.2 | 0.00 | 0.02 | 0.02 | 100 | 1012.7 |
| 20260905121512 | 65 | 360 | 2.6 | 9.6 | 0.00 | 0.02 | 0.02 | 100 | 1013.0 |
| 20260905120011 | 66 | 360 | 2.6 | 5.2 | 0.00 | 0.02 | 0.02 | 100 | 1012.4 |
| 20260905114511 | 64 | 360 | 0.9 | 2.6 | 0.01 | 0.02 | 0.02 | 100 | 1012.4 |
| 20260905113010 | 64 | 360 | 0.0 | 3.5 | 0.02 | 0.02 | 0.02 | 100 | 1012.5 |
| 20260905111509 | 64 | 360 | 0.9 | 5.2 | 0.02 | 0.02 | 0.02 | 100 | 1012.5 |
| 20260905110008 | 63 | 360 | 0.9 | 4.3 | 0.02 | 0.02 | 0.02 | 100 | 1012.1 |
| 20260905104510 | 65 | 360 | 1.7 | 9.6 | 0.02 | 0.02 | 0.02 | 100 | 1012.5 |
| 20260905103006 | 70 | 313 | 3.5 | 8.7 | 0.00 | 0.00 | 0.00 | 100 | 1011.9 |
| 20260905101502 | 72 | 360 | 3.5 | 10.4 | 0.00 | 0.00 | 0.00 | 100 | 1010.9 |
| 20260905100001 | 73 | 360 | 3.5 | 8.7 | 0.00 | 0.00 | 0.00 | 100 | 1011.0 |
| 20260905094609 | 75 | 275 | 3.5 | 11.3 | 0.00 | 0.00 | 0.00 | 100 | 1010.6 |
| 20260905093059 | 75 | 286 | 3.5 | 11.3 | 0.00 | 0.00 | 0.00 | 100 | 1010.2 |
| 20260905091607 | 77 | 300 | 3.5 | 10.4 | 0.00 | 0.00 | 0.00 | 100 | 1010.1 |
| 20260905090056 | 77 | 255 | 5.2 | 11.3 | 0.00 | 0.00 | 0.00 | 100 | 1010.1 |
| 20260905084554 | 78 | 278 | 8.7 | 13.9 | 0.00 | 0.01 | 0.00 | 100 | 1009.8 |
| 20260905083050 | 77 | 284 | 7.8 | 13.0 | 0.00 | 0.01 | 0.00 | 100 | 1009.7 |
| 20260905081558 | 76 | 257 | 7.0 | 11.3 | 0.00 | 0.01 | 0.00 | 100 | 1009.7 |
| 20260905080054 | 76 | 283 | 6.1 | 10.4 | 0.00 | 0.01 | 0.00 | 100 | 1009.5 |
| 20260905074539 | 76 | 300 | 2.6 | 8.7 | 0.00 | 0.01 | 0.00 | 100 | 1009.6 |
| 20260905073043 | 75 | 332 | 1.7 | 7.0 | 0.00 | 0.01 | 0.00 | 100 | 1009.2 |
| 20260905071531 | 75 | 278 | 2.6 | 7.8 | 0.00 | 0.01 | 0.00 | 100 | 1009.1 |
| 20260905070032 | 75 | 288 | 2.6 | 7.8 | 0.00 | 0.01 | 0.00 | 100 | 1008.9 |
| 20260905064523 | 74 | 278 | 6.1 | 10.4 | 0.00 | 0.01 | 0.00 | 100 | 1008.9 |
| 20260905063020 | 74 | 281 | 3.5 | 8.7 | 0.00 | 0.01 | 0.00 | 100 | 1008.9 |
| 20260905061517 | 72 | 279 | 4.3 | 8.7 | 0.00 | 0.01 | 0.00 | 100 | 1009.0 |
| 20260905060013 | 70 | 270 | 1.7 | 2.6 | 0.00 | 0.01 | 0.00 | 100 | 1009.2 |
| 20260905054508 | 66 | 251 | 0.0 | 2.6 | 0.00 | 0.01 | 0.00 | 100 | 1009.1 |
| 20260905053004 | 62 | 185 | 0.0 | 0.0 | 0.00 | 0.01 | 0.00 | 100 | 1009.0 |